sensor_id;sensor_type;location;lat;lon;timestamp;P1;durP1;ratioP1;P2;durP2;ratioP2
41456;SDS011;27197;51.752;5.220;2023-12-22T05:32:19;4.97;;;1.70;;
41456;SDS011;27197;51.752;5.220;2023-12-22T05:34:47;6.42;;;1.95;;
41456;SDS011;27197;51.752;5.220;2023-12-22T05:37:14;6.17;;;1.60;;
41456;SDS011;27197;51.752;5.220;2023-12-22T05:39:42;4.47;;;1.95;;
41456;SDS011;27197;51.752;5.220;2023-12-22T05:42:11;4.62;;;1.60;;
41456;SDS011;27197;51.752;5.220;2023-12-22T05:44:38;9.45;;;2.20;;
41456;SDS011;27197;51.752;5.220;2023-12-22T05:47:06;4.60;;;1.45;;
41456;SDS011;27197;51.752;5.220;2023-12-22T05:49:34;4.58;;;1.50;;
41456;SDS011;27197;51.752;5.220;2023-12-22T05:52:01;5.35;;;2.05;;
41456;SDS011;27197;51.752;5.220;2023-12-22T05:54:29;7.67;;;1.80;;
41456;SDS011;27197;51.752;5.220;2023-12-22T05:56:57;6.92;;;1.75;;
41456;SDS011;27197;51.752;5.220;2023-12-22T05:59:25;8.80;;;2.55;;
41456;SDS011;27197;51.752;5.220;2023-12-22T06:01:54;5.53;;;1.60;;
41456;SDS011;27197;51.752;5.220;2023-12-22T06:04:22;5.93;;;1.70;;
41456;SDS011;27197;51.752;5.220;2023-12-22T06:09:17;5.75;;;1.65;;
41456;SDS011;27197;51.752;5.220;2023-12-22T06:11:46;4.47;;;1.40;;
41456;SDS011;27197;51.752;5.220;2023-12-22T06:14:14;5.47;;;1.80;;
41456;SDS011;27197;51.752;5.220;2023-12-22T06:16:41;5.12;;;1.25;;
41456;SDS011;27197;51.752;5.220;2023-12-22T06:19:09;6.00;;;2.35;;
41456;SDS011;27197;51.752;5.220;2023-12-22T06:21:38;5.45;;;1.67;;
41456;SDS011;27197;51.752;5.220;2023-12-22T06:24:07;8.00;;;2.22;;
41456;SDS011;27197;51.752;5.220;2023-12-22T06:26:35;5.05;;;1.90;;
41456;SDS011;27197;51.752;5.220;2023-12-22T06:29:03;5.75;;;1.65;;
41456;SDS011;27197;51.752;5.220;2023-12-22T06:31:30;4.90;;;1.60;;
41456;SDS011;27197;51.752;5.220;2023-12-22T06:33:58;6.83;;;2.00;;
41456;SDS011;27197;51.752;5.220;2023-12-22T06:36:27;7.97;;;1.45;;
41456;SDS011;27197;51.752;5.220;2023-12-22T06:38:57;5.40;;;1.87;;
41456;SDS011;27197;51.752;5.220;2023-12-22T06:41:25;7.08;;;1.60;;
41456;SDS011;27197;51.752;5.220;2023-12-22T06:43:54;7.72;;;2.17;;
41456;SDS011;27197;51.752;5.220;2023-12-22T06:46:23;12.78;;;3.08;;
41456;SDS011;27197;51.752;5.220;2023-12-22T06:48:55;11.18;;;2.30;;
41456;SDS011;27197;51.752;5.220;2023-12-22T06:51:24;9.85;;;2.42;;
41456;SDS011;27197;51.752;5.220;2023-12-22T06:53:54;8.83;;;2.75;;
41456;SDS011;27197;51.752;5.220;2023-12-22T06:56:22;8.63;;;2.75;;
41456;SDS011;27197;51.752;5.220;2023-12-22T06:58:52;12.90;;;3.47;;
41456;SDS011;27197;51.752;5.220;2023-12-22T07:01:22;10.60;;;2.33;;
41456;SDS011;27197;51.752;5.220;2023-12-22T07:03:51;11.40;;;3.00;;
41456;SDS011;27197;51.752;5.220;2023-12-22T07:06:19;12.35;;;2.50;;
41456;SDS011;27197;51.752;5.220;2023-12-22T07:09:27;9.03;;;2.65;;
41456;SDS011;27197;51.752;5.220;2023-12-22T07:11:40;11.38;;;2.70;;
41456;SDS011;27197;51.752;5.220;2023-12-22T07:14:09;15.63;;;3.10;;
41456;SDS011;27197;51.752;5.220;2023-12-22T07:16:37;13.83;;;2.98;;
41456;SDS011;27197;51.752;5.220;2023-12-22T07:19:05;11.50;;;3.15;;
41456;SDS011;27197;51.752;5.220;2023-12-22T07:21:32;12.15;;;2.92;;
41456;SDS011;27197;51.752;5.220;2023-12-22T07:24:00;12.70;;;3.75;;
41456;SDS011;27197;51.752;5.220;2023-12-22T07:26:28;7.80;;;2.35;;
41456;SDS011;27197;51.752;5.220;2023-12-22T07:28:55;16.23;;;3.75;;
41456;SDS011;27197;51.752;5.220;2023-12-22T07:31:24;9.00;;;2.62;;
41456;SDS011;27197;51.752;5.220;2023-12-22T07:33:52;12.23;;;2.70;;
41456;SDS011;27197;51.752;5.220;2023-12-22T07:36:19;9.33;;;2.85;;
41456;SDS011;27197;51.752;5.220;2023-12-22T07:38:49;10.50;;;3.15;;
41456;SDS011;27197;51.752;5.220;2023-12-22T07:41:17;9.10;;;2.60;;
41456;SDS011;27197;51.752;5.220;2023-12-22T07:43:45;9.98;;;3.30;;
41456;SDS011;27197;51.752;5.220;2023-12-22T07:46:19;10.20;;;2.87;;
41456;SDS011;27197;51.752;5.220;2023-12-22T07:48:48;8.63;;;3.37;;
41456;SDS011;27197;51.752;5.220;2023-12-22T07:51:16;12.43;;;2.70;;
41456;SDS011;27197;51.752;5.220;2023-12-22T07:53:43;12.30;;;3.15;;
41456;SDS011;27197;51.752;5.220;2023-12-22T07:56:11;7.22;;;2.20;;
41456;SDS011;27197;51.752;5.220;2023-12-22T07:58:39;14.20;;;3.42;;
41456;SDS011;27197;51.752;5.220;2023-12-22T08:01:06;19.00;;;3.65;;
41456;SDS011;27197;51.752;5.220;2023-12-22T08:03:34;13.72;;;3.10;;
41456;SDS011;27197;51.752;5.220;2023-12-22T08:06:03;11.78;;;2.77;;
41456;SDS011;27197;51.752;5.220;2023-12-22T08:08:31;13.00;;;3.30;;
41456;SDS011;27197;51.752;5.220;2023-12-22T08:13:26;12.95;;;3.52;;
41456;SDS011;27197;51.752;5.220;2023-12-22T08:15:53;14.78;;;3.05;;
41456;SDS011;27197;51.752;5.220;2023-12-22T08:18:21;10.63;;;3.42;;
41456;SDS011;27197;51.752;5.220;2023-12-22T08:20:49;9.23;;;2.90;;
41456;SDS011;27197;51.752;5.220;2023-12-22T08:23:16;10.32;;;3.22;;
41456;SDS011;27197;51.752;5.220;2023-12-22T08:25:44;8.40;;;3.30;;
41456;SDS011;27197;51.752;5.220;2023-12-22T08:28:11;11.08;;;2.92;;
41456;SDS011;27197;51.752;5.220;2023-12-22T08:30:39;9.00;;;2.87;;
41456;SDS011;27197;51.752;5.220;2023-12-22T08:33:06;10.10;;;2.37;;
41456;SDS011;27197;51.752;5.220;2023-12-22T08:35:34;10.35;;;2.98;;
41456;SDS011;27197;51.752;5.220;2023-12-22T08:38:01;9.15;;;2.72;;
41456;SDS011;27197;51.752;5.220;2023-12-22T08:40:29;13.40;;;3.17;;
41456;SDS011;27197;51.752;5.220;2023-12-22T08:42:56;7.40;;;2.45;;
41456;SDS011;27197;51.752;5.220;2023-12-22T08:45:27;10.95;;;3.45;;
41456;SDS011;27197;51.752;5.220;2023-12-22T08:47:55;7.42;;;3.22;;
41456;SDS011;27197;51.752;5.220;2023-12-22T08:50:23;8.45;;;2.30;;
41456;SDS011;27197;51.752;5.220;2023-12-22T08:52:51;6.83;;;2.20;;
41456;SDS011;27197;51.752;5.220;2023-12-22T08:55:19;7.25;;;2.27;;
41456;SDS011;27197;51.752;5.220;2023-12-22T08:57:47;10.58;;;2.83;;
41456;SDS011;27197;51.752;5.220;2023-12-22T09:00:14;12.23;;;2.62;;
41456;SDS011;27197;51.752;5.220;2023-12-22T09:02:42;10.13;;;3.60;;
41456;SDS011;27197;51.752;5.220;2023-12-22T09:05:10;10.82;;;3.10;;
41456;SDS011;27197;51.752;5.220;2023-12-22T09:07:37;14.60;;;3.20;;
41456;SDS011;27197;51.752;5.220;2023-12-22T09:10:05;10.82;;;2.47;;
41456;SDS011;27197;51.752;5.220;2023-12-22T09:12:33;9.28;;;2.42;;
41456;SDS011;27197;51.752;5.220;2023-12-22T09:15:00;11.70;;;2.80;;
41456;SDS011;27197;51.752;5.220;2023-12-22T09:17:30;16.37;;;3.33;;
41456;SDS011;27197;51.752;5.220;2023-12-22T09:19:58;13.53;;;3.45;;
41456;SDS011;27197;51.752;5.220;2023-12-22T09:22:25;12.58;;;2.95;;
41456;SDS011;27197;51.752;5.220;2023-12-22T09:24:53;9.75;;;2.22;;
41456;SDS011;27197;51.752;5.220;2023-12-22T09:27:20;10.53;;;2.05;;
41456;SDS011;27197;51.752;5.220;2023-12-22T09:29:48;10.68;;;2.20;;
41456;SDS011;27197;51.752;5.220;2023-12-22T09:32:15;8.10;;;2.60;;
41456;SDS011;27197;51.752;5.220;2023-12-22T09:34:43;10.13;;;2.47;;
41456;SDS011;27197;51.752;5.220;2023-12-22T09:37:10;15.38;;;3.37;;
41456;SDS011;27197;51.752;5.220;2023-12-22T09:39:38;13.28;;;3.02;;
41456;SDS011;27197;51.752;5.220;2023-12-22T09:42:06;15.20;;;3.52;;
41456;SDS011;27197;51.752;5.220;2023-12-22T09:44:34;14.60;;;3.58;;
41456;SDS011;27197;51.752;5.220;2023-12-22T09:47:04;12.30;;;3.22;;
41456;SDS011;27197;51.752;5.220;2023-12-22T09:49:33;11.08;;;2.87;;
41456;SDS011;27197;51.752;5.220;2023-12-22T09:52:01;10.55;;;2.45;;
41456;SDS011;27197;51.752;5.220;2023-12-22T09:54:31;12.30;;;2.80;;
41456;SDS011;27197;51.752;5.220;2023-12-22T09:57:00;15.20;;;3.27;;
41456;SDS011;27197;51.752;5.220;2023-12-22T09:59:28;12.68;;;2.67;;
41456;SDS011;27197;51.752;5.220;2023-12-22T10:01:56;10.13;;;2.75;;
41456;SDS011;27197;51.752;5.220;2023-12-22T10:04:26;6.97;;;2.37;;
41456;SDS011;27197;51.752;5.220;2023-12-22T10:06:54;7.45;;;2.70;;
41456;SDS011;27197;51.752;5.220;2023-12-22T10:09:28;7.45;;;2.05;;
41456;SDS011;27197;51.752;5.220;2023-12-22T10:11:56;15.65;;;3.15;;
41456;SDS011;27197;51.752;5.220;2023-12-22T10:14:24;11.00;;;2.17;;
41456;SDS011;27197;51.752;5.220;2023-12-22T10:16:53;7.72;;;2.10;;
41456;SDS011;27197;51.752;5.220;2023-12-22T10:19:22;5.92;;;2.45;;
41456;SDS011;27197;51.752;5.220;2023-12-22T10:21:49;10.23;;;2.17;;
41456;SDS011;27197;51.752;5.220;2023-12-22T10:27:10;6.78;;;2.30;;
41456;SDS011;27197;51.752;5.220;2023-12-22T10:32:06;6.80;;;1.95;;
41456;SDS011;27197;51.752;5.220;2023-12-22T10:34:34;7.40;;;1.60;;
41456;SDS011;27197;51.752;5.220;2023-12-22T10:37:02;12.15;;;1.70;;
41456;SDS011;27197;51.752;5.220;2023-12-22T10:39:30;6.33;;;1.37;;
41456;SDS011;27197;51.752;5.220;2023-12-22T10:41:59;8.75;;;1.90;;
41456;SDS011;27197;51.752;5.220;2023-12-22T10:44:27;5.87;;;1.70;;
41456;SDS011;27197;51.752;5.220;2023-12-22T10:46:56;5.17;;;1.50;;
41456;SDS011;27197;51.752;5.220;2023-12-22T10:49:24;3.75;;;1.30;;
41456;SDS011;27197;51.752;5.220;2023-12-22T10:51:52;6.35;;;1.60;;
41456;SDS011;27197;51.752;5.220;2023-12-22T10:54:19;6.15;;;1.80;;
41456;SDS011;27197;51.752;5.220;2023-12-22T10:56:47;7.95;;;1.87;;
41456;SDS011;27197;51.752;5.220;2023-12-22T10:59:18;3.70;;;1.25;;
41456;SDS011;27197;51.752;5.220;2023-12-22T11:01:47;4.65;;;1.45;;
41456;SDS011;27197;51.752;5.220;2023-12-22T11:04:17;5.42;;;1.20;;
41456;SDS011;27197;51.752;5.220;2023-12-22T11:06:49;3.95;;;1.15;;
41456;SDS011;27197;51.752;5.220;2023-12-22T11:09:19;5.83;;;1.37;;
41456;SDS011;27197;51.752;5.220;2023-12-22T11:11:51;4.22;;;1.37;;
41456;SDS011;27197;51.752;5.220;2023-12-22T11:14:21;9.28;;;1.92;;
41456;SDS011;27197;51.752;5.220;2023-12-22T11:16:50;3.98;;;1.15;;
41456;SDS011;27197;51.752;5.220;2023-12-22T11:19:20;5.00;;;1.65;;
41456;SDS011;27197;51.752;5.220;2023-12-22T11:21:49;5.95;;;1.60;;
41456;SDS011;27197;51.752;5.220;2023-12-22T11:24:18;2.98;;;0.90;;
41456;SDS011;27197;51.752;5.220;2023-12-22T11:26:47;3.77;;;1.50;;
41456;SDS011;27197;51.752;5.220;2023-12-22T11:29:16;6.37;;;1.57;;
41456;SDS011;27197;51.752;5.220;2023-12-22T11:31:46;4.67;;;1.47;;
41456;SDS011;27197;51.752;5.220;2023-12-22T11:34:16;3.00;;;1.35;;
41456;SDS011;27197;51.752;5.220;2023-12-22T11:36:46;4.28;;;1.40;;
41456;SDS011;27197;51.752;5.220;2023-12-22T11:39:15;5.47;;;1.60;;
41456;SDS011;27197;51.752;5.220;2023-12-22T11:41:42;7.42;;;1.70;;
41456;SDS011;27197;51.752;5.220;2023-12-22T11:44:10;7.67;;;1.90;;
41456;SDS011;27197;51.752;5.220;2023-12-22T11:46:38;6.17;;;1.80;;
41456;SDS011;27197;51.752;5.220;2023-12-22T11:49:06;8.75;;;1.82;;
41456;SDS011;27197;51.752;5.220;2023-12-22T11:51:33;8.45;;;2.12;;
41456;SDS011;27197;51.752;5.220;2023-12-22T11:54:01;2.47;;;1.15;;
41456;SDS011;27197;51.752;5.220;2023-12-22T11:58:57;6.47;;;1.42;;
41456;SDS011;27197;51.752;5.220;2023-12-22T12:01:26;6.42;;;1.50;;
41456;SDS011;27197;51.752;5.220;2023-12-22T12:03:57;3.87;;;1.50;;
41456;SDS011;27197;51.752;5.220;2023-12-22T12:09:03;5.92;;;1.85;;
41456;SDS011;27197;51.752;5.220;2023-12-22T12:14:26;5.40;;;1.82;;
41456;SDS011;27197;51.752;5.220;2023-12-22T12:17:05;3.85;;;1.90;;
41456;SDS011;27197;51.752;5.220;2023-12-22T12:19:39;3.33;;;1.42;;
41456;SDS011;27197;51.752;5.220;2023-12-22T12:22:08;4.08;;;1.82;;
41456;SDS011;27197;51.752;5.220;2023-12-22T12:24:39;4.40;;;1.75;;
41456;SDS011;27197;51.752;5.220;2023-12-22T12:27:07;5.12;;;1.77;;
41456;SDS011;27197;51.752;5.220;2023-12-22T12:29:35;3.67;;;1.65;;
41456;SDS011;27197;51.752;5.220;2023-12-22T12:32:03;3.35;;;1.75;;
41456;SDS011;27197;51.752;5.220;2023-12-22T12:34:32;4.67;;;1.70;;
41456;SDS011;27197;51.752;5.220;2023-12-22T12:37:00;5.37;;;1.65;;
41456;SDS011;27197;51.752;5.220;2023-12-22T12:39:29;5.35;;;1.75;;
41456;SDS011;27197;51.752;5.220;2023-12-22T12:41:59;4.55;;;1.70;;
41456;SDS011;27197;51.752;5.220;2023-12-22T12:44:30;3.67;;;1.45;;
41456;SDS011;27197;51.752;5.220;2023-12-22T12:46:58;6.08;;;2.45;;
41456;SDS011;27197;51.752;5.220;2023-12-22T12:49:26;3.58;;;1.65;;
41456;SDS011;27197;51.752;5.220;2023-12-22T12:51:55;5.42;;;1.62;;
41456;SDS011;27197;51.752;5.220;2023-12-22T12:54:23;4.80;;;1.77;;
41456;SDS011;27197;51.752;5.220;2023-12-22T12:56:52;4.40;;;1.57;;
41456;SDS011;27197;51.752;5.220;2023-12-22T12:59:20;4.67;;;1.90;;
41456;SDS011;27197;51.752;5.220;2023-12-22T13:01:48;5.95;;;1.65;;
41456;SDS011;27197;51.752;5.220;2023-12-22T13:04:15;4.33;;;1.92;;
41456;SDS011;27197;51.752;5.220;2023-12-22T13:06:46;5.33;;;2.30;;
41456;SDS011;27197;51.752;5.220;2023-12-22T13:09:14;5.05;;;1.70;;
41456;SDS011;27197;51.752;5.220;2023-12-22T13:11:43;4.12;;;1.85;;
41456;SDS011;27197;51.752;5.220;2023-12-22T13:14:12;4.22;;;1.80;;
41456;SDS011;27197;51.752;5.220;2023-12-22T13:16:54;3.90;;;1.85;;
41456;SDS011;27197;51.752;5.220;2023-12-22T13:19:23;3.58;;;1.85;;
41456;SDS011;27197;51.752;5.220;2023-12-22T13:21:52;4.25;;;1.67;;
41456;SDS011;27197;51.752;5.220;2023-12-22T13:24:21;6.17;;;2.47;;
41456;SDS011;27197;51.752;5.220;2023-12-22T13:26:58;3.87;;;1.35;;
41456;SDS011;27197;51.752;5.220;2023-12-22T13:29:29;9.40;;;3.20;;
41456;SDS011;27197;51.752;5.220;2023-12-22T13:31:56;3.37;;;1.52;;
41456;SDS011;27197;51.752;5.220;2023-12-22T13:34:24;4.80;;;2.02;;
41456;SDS011;27197;51.752;5.220;2023-12-22T13:36:52;5.20;;;1.60;;
41456;SDS011;27197;51.752;5.220;2023-12-22T13:39:19;3.45;;;1.60;;
41456;SDS011;27197;51.752;5.220;2023-12-22T13:41:50;3.25;;;1.52;;
41456;SDS011;27197;51.752;5.220;2023-12-22T13:44:17;5.67;;;1.75;;
41456;SDS011;27197;51.752;5.220;2023-12-22T13:46:45;4.83;;;1.55;;
41456;SDS011;27197;51.752;5.220;2023-12-22T13:49:13;3.58;;;1.30;;
41456;SDS011;27197;51.752;5.220;2023-12-22T13:51:41;4.97;;;2.00;;
41456;SDS011;27197;51.752;5.220;2023-12-22T13:54:09;3.95;;;1.35;;
41456;SDS011;27197;51.752;5.220;2023-12-22T13:59:08;4.20;;;1.37;;
41456;SDS011;27197;51.752;5.220;2023-12-22T14:01:36;1.95;;;1.27;;
41456;SDS011;27197;51.752;5.220;2023-12-22T14:04:04;4.17;;;1.98;;
41456;SDS011;27197;51.752;5.220;2023-12-22T14:06:33;4.42;;;1.80;;
41456;SDS011;27197;51.752;5.220;2023-12-22T14:09:01;3.50;;;1.45;;
41456;SDS011;27197;51.752;5.220;2023-12-22T14:11:28;4.42;;;1.50;;
41456;SDS011;27197;51.752;5.220;2023-12-22T14:13:56;4.62;;;1.50;;
41456;SDS011;27197;51.752;5.220;2023-12-22T14:16:24;4.85;;;1.60;;
41456;SDS011;27197;51.752;5.220;2023-12-22T14:18:51;3.52;;;1.40;;
41456;SDS011;27197;51.752;5.220;2023-12-22T14:21:20;4.00;;;1.52;;
41456;SDS011;27197;51.752;5.220;2023-12-22T14:23:48;4.35;;;1.98;;
41456;SDS011;27197;51.752;5.220;2023-12-22T14:26:15;4.10;;;1.30;;
41456;SDS011;27197;51.752;5.220;2023-12-22T14:28:43;3.60;;;1.57;;
41456;SDS011;27197;51.752;5.220;2023-12-22T14:31:12;5.05;;;1.52;;
41456;SDS011;27197;51.752;5.220;2023-12-22T14:33:39;4.72;;;1.35;;
41456;SDS011;27197;51.752;5.220;2023-12-22T14:38:54;2.98;;;1.20;;
41456;SDS011;27197;51.752;5.220;2023-12-22T14:41:21;2.27;;;1.22;;
41456;SDS011;27197;51.752;5.220;2023-12-22T14:43:49;4.10;;;1.20;;
41456;SDS011;27197;51.752;5.220;2023-12-22T14:46:16;5.72;;;1.42;;
41456;SDS011;27197;51.752;5.220;2023-12-22T14:48:44;3.00;;;1.50;;
41456;SDS011;27197;51.752;5.220;2023-12-22T14:51:11;5.90;;;1.72;;
41456;SDS011;27197;51.752;5.220;2023-12-22T14:53:39;3.05;;;1.30;;
41456;SDS011;27197;51.752;5.220;2023-12-22T14:56:07;3.98;;;1.40;;
41456;SDS011;27197;51.752;5.220;2023-12-22T14:58:34;6.47;;;1.60;;
41456;SDS011;27197;51.752;5.220;2023-12-22T15:01:02;3.98;;;1.82;;
41456;SDS011;27197;51.752;5.220;2023-12-22T15:03:29;4.33;;;2.10;;
41456;SDS011;27197;51.752;5.220;2023-12-22T15:05:57;3.92;;;1.98;;
41456;SDS011;27197;51.752;5.220;2023-12-22T15:08:25;3.95;;;1.22;;
41456;SDS011;27197;51.752;5.220;2023-12-22T15:13:20;4.80;;;1.45;;
41456;SDS011;27197;51.752;5.220;2023-12-22T15:15:47;4.33;;;1.25;;
41456;SDS011;27197;51.752;5.220;2023-12-22T15:18:15;6.87;;;2.52;;
41456;SDS011;27197;51.752;5.220;2023-12-22T15:20:42;5.62;;;1.80;;
41456;SDS011;27197;51.752;5.220;2023-12-22T15:23:10;3.02;;;1.27;;
41456;SDS011;27197;51.752;5.220;2023-12-22T15:25:37;4.33;;;1.50;;
41456;SDS011;27197;51.752;5.220;2023-12-22T15:28:05;6.05;;;2.35;;
41456;SDS011;27197;51.752;5.220;2023-12-22T15:30:34;3.75;;;1.30;;
41456;SDS011;27197;51.752;5.220;2023-12-22T15:33:01;3.35;;;1.15;;
41456;SDS011;27197;51.752;5.220;2023-12-22T15:35:29;4.83;;;1.60;;
41456;SDS011;27197;51.752;5.220;2023-12-22T15:37:57;4.87;;;1.22;;
41456;SDS011;27197;51.752;5.220;2023-12-22T15:40:24;4.33;;;1.32;;
41456;SDS011;27197;51.752;5.220;2023-12-22T15:45:20;3.58;;;1.20;;
41456;SDS011;27197;51.752;5.220;2023-12-22T15:47:47;5.67;;;1.50;;
41456;SDS011;27197;51.752;5.220;2023-12-22T15:50:14;5.22;;;1.55;;
41456;SDS011;27197;51.752;5.220;2023-12-22T15:52:42;5.78;;;1.60;;
41456;SDS011;27197;51.752;5.220;2023-12-22T15:55:09;4.37;;;1.92;;
41456;SDS011;27197;51.752;5.220;2023-12-22T15:57:40;7.08;;;1.72;;
41456;SDS011;27197;51.752;5.220;2023-12-22T16:00:08;4.75;;;1.40;;
41456;SDS011;27197;51.752;5.220;2023-12-22T16:07:34;3.33;;;1.10;;
41456;SDS011;27197;51.752;5.220;2023-12-22T16:10:02;3.30;;;1.17;;
41456;SDS011;27197;51.752;5.220;2023-12-22T16:12:30;4.90;;;1.60;;
41456;SDS011;27197;51.752;5.220;2023-12-22T16:14:58;4.28;;;1.40;;
41456;SDS011;27197;51.752;5.220;2023-12-22T16:17:25;2.30;;;0.95;;
41456;SDS011;27197;51.752;5.220;2023-12-22T16:19:53;5.22;;;2.27;;
41456;SDS011;27197;51.752;5.220;2023-12-22T16:22:20;3.70;;;1.30;;
41456;SDS011;27197;51.752;5.220;2023-12-22T16:24:48;4.80;;;1.70;;
41456;SDS011;27197;51.752;5.220;2023-12-22T16:27:15;6.67;;;1.40;;
41456;SDS011;27197;51.752;5.220;2023-12-22T16:29:43;3.37;;;1.50;;
41456;SDS011;27197;51.752;5.220;2023-12-22T16:32:12;5.45;;;1.70;;
41456;SDS011;27197;51.752;5.220;2023-12-22T16:34:42;4.08;;;1.30;;
41456;SDS011;27197;51.752;5.220;2023-12-22T16:39:47;3.62;;;1.17;;
41456;SDS011;27197;51.752;5.220;2023-12-22T16:42:16;6.42;;;1.75;;
41456;SDS011;27197;51.752;5.220;2023-12-22T16:44:47;5.60;;;1.55;;
41456;SDS011;27197;51.752;5.220;2023-12-22T16:47:14;4.58;;;1.67;;
41456;SDS011;27197;51.752;5.220;2023-12-22T16:49:42;4.62;;;1.42;;
41456;SDS011;27197;51.752;5.220;2023-12-22T16:52:11;5.92;;;1.65;;
41456;SDS011;27197;51.752;5.220;2023-12-22T16:54:39;4.10;;;1.35;;
41456;SDS011;27197;51.752;5.220;2023-12-22T16:57:06;4.20;;;1.55;;
41456;SDS011;27197;51.752;5.220;2023-12-22T16:59:34;3.20;;;1.35;;
41456;SDS011;27197;51.752;5.220;2023-12-22T17:02:01;5.40;;;1.40;;
41456;SDS011;27197;51.752;5.220;2023-12-22T17:04:29;4.60;;;1.75;;
41456;SDS011;27197;51.752;5.220;2023-12-22T17:06:56;4.62;;;1.60;;
41456;SDS011;27197;51.752;5.220;2023-12-22T17:09:24;6.30;;;1.50;;
41456;SDS011;27197;51.752;5.220;2023-12-22T17:11:52;5.25;;;1.30;;
41456;SDS011;27197;51.752;5.220;2023-12-22T17:14:19;5.37;;;1.45;;
41456;SDS011;27197;51.752;5.220;2023-12-22T17:19:14;5.00;;;1.42;;
41456;SDS011;27197;51.752;5.220;2023-12-22T17:21:42;4.50;;;1.25;;
41456;SDS011;27197;51.752;5.220;2023-12-22T17:24:09;4.37;;;1.62;;
41456;SDS011;27197;51.752;5.220;2023-12-22T17:26:37;2.30;;;1.02;;
41456;SDS011;27197;51.752;5.220;2023-12-22T17:29:04;5.53;;;1.75;;
41456;SDS011;27197;51.752;5.220;2023-12-22T17:31:32;2.90;;;1.05;;
41456;SDS011;27197;51.752;5.220;2023-12-22T17:33:59;4.35;;;1.50;;
41456;SDS011;27197;51.752;5.220;2023-12-22T17:36:27;3.47;;;1.30;;
41456;SDS011;27197;51.752;5.220;2023-12-22T17:38:57;4.80;;;1.62;;
41456;SDS011;27197;51.752;5.220;2023-12-22T17:41:26;3.77;;;1.50;;
41456;SDS011;27197;51.752;5.220;2023-12-22T17:43:54;4.55;;;1.35;;
41456;SDS011;27197;51.752;5.220;2023-12-22T17:46:21;3.75;;;1.25;;
41456;SDS011;27197;51.752;5.220;2023-12-22T17:48:49;3.77;;;1.50;;
41456;SDS011;27197;51.752;5.220;2023-12-22T17:51:16;2.83;;;1.32;;
41456;SDS011;27197;51.752;5.220;2023-12-22T17:53:44;4.58;;;1.47;;
41456;SDS011;27197;51.752;5.220;2023-12-22T17:56:11;3.17;;;1.20;;
41456;SDS011;27197;51.752;5.220;2023-12-22T17:58:39;6.37;;;1.40;;
41456;SDS011;27197;51.752;5.220;2023-12-22T18:01:07;3.30;;;1.27;;
41456;SDS011;27197;51.752;5.220;2023-12-22T18:03:34;5.12;;;1.52;;
41456;SDS011;27197;51.752;5.220;2023-12-22T18:06:02;4.67;;;1.60;;
41456;SDS011;27197;51.752;5.220;2023-12-22T18:08:30;4.75;;;1.40;;
41456;SDS011;27197;51.752;5.220;2023-12-22T18:10:57;3.90;;;1.35;;
41456;SDS011;27197;51.752;5.220;2023-12-22T18:13:25;4.37;;;1.60;;
41456;SDS011;27197;51.752;5.220;2023-12-22T18:15:53;5.40;;;1.60;;
41456;SDS011;27197;51.752;5.220;2023-12-22T18:18:21;5.00;;;1.60;;
41456;SDS011;27197;51.752;5.220;2023-12-22T18:20:48;4.92;;;1.77;;
41456;SDS011;27197;51.752;5.220;2023-12-22T18:23:16;4.50;;;1.65;;
41456;SDS011;27197;51.752;5.220;2023-12-22T18:25:45;6.28;;;1.70;;
41456;SDS011;27197;51.752;5.220;2023-12-22T18:28:12;4.80;;;1.72;;
41456;SDS011;27197;51.752;5.220;2023-12-22T18:30:40;4.42;;;1.57;;
41456;SDS011;27197;51.752;5.220;2023-12-22T18:33:08;5.90;;;2.00;;
41456;SDS011;27197;51.752;5.220;2023-12-22T18:35:35;4.42;;;1.47;;
41456;SDS011;27197;51.752;5.220;2023-12-22T18:38:03;4.33;;;1.27;;
41456;SDS011;27197;51.752;5.220;2023-12-22T18:40:31;4.42;;;1.52;;
41456;SDS011;27197;51.752;5.220;2023-12-22T18:42:58;5.08;;;1.60;;
41456;SDS011;27197;51.752;5.220;2023-12-22T18:45:26;3.52;;;1.20;;
41456;SDS011;27197;51.752;5.220;2023-12-22T18:47:53;3.87;;;1.55;;
41456;SDS011;27197;51.752;5.220;2023-12-22T18:50:21;7.53;;;1.70;;
41456;SDS011;27197;51.752;5.220;2023-12-22T18:52:48;5.00;;;1.65;;
41456;SDS011;27197;51.752;5.220;2023-12-22T18:55:16;5.97;;;1.75;;
41456;SDS011;27197;51.752;5.220;2023-12-22T18:57:43;7.97;;;1.67;;
41456;SDS011;27197;51.752;5.220;2023-12-22T19:00:12;5.85;;;2.22;;
41456;SDS011;27197;51.752;5.220;2023-12-22T19:02:40;4.83;;;1.70;;
41456;SDS011;27197;51.752;5.220;2023-12-22T19:05:08;5.53;;;1.67;;
41456;SDS011;27197;51.752;5.220;2023-12-22T19:07:35;6.12;;;1.75;;
41456;SDS011;27197;51.752;5.220;2023-12-22T19:10:03;3.52;;;1.27;;
41456;SDS011;27197;51.752;5.220;2023-12-22T19:12:31;5.47;;;1.52;;
41456;SDS011;27197;51.752;5.220;2023-12-22T19:14:58;5.25;;;1.50;;
41456;SDS011;27197;51.752;5.220;2023-12-22T19:17:26;5.45;;;1.87;;
41456;SDS011;27197;51.752;5.220;2023-12-22T19:19:53;5.03;;;1.75;;
41456;SDS011;27197;51.752;5.220;2023-12-22T19:22:21;4.95;;;1.50;;
41456;SDS011;27197;51.752;5.220;2023-12-22T19:24:48;4.65;;;1.45;;
41456;SDS011;27197;51.752;5.220;2023-12-22T19:29:57;5.72;;;1.72;;
41456;SDS011;27197;51.752;5.220;2023-12-22T19:32:25;5.30;;;1.20;;
41456;SDS011;27197;51.752;5.220;2023-12-22T19:34:53;5.50;;;1.65;;
41456;SDS011;27197;51.752;5.220;2023-12-22T19:37:20;6.22;;;1.67;;
41456;SDS011;27197;51.752;5.220;2023-12-22T19:39:48;6.30;;;1.50;;
41456;SDS011;27197;51.752;5.220;2023-12-22T19:42:15;5.28;;;1.60;;
41456;SDS011;27197;51.752;5.220;2023-12-22T19:44:43;6.05;;;1.82;;
41456;SDS011;27197;51.752;5.220;2023-12-22T19:47:11;6.75;;;1.47;;
41456;SDS011;27197;51.752;5.220;2023-12-22T19:49:38;7.12;;;1.30;;
41456;SDS011;27197;51.752;5.220;2023-12-22T19:52:06;10.55;;;2.20;;
41456;SDS011;27197;51.752;5.220;2023-12-22T19:54:33;6.72;;;2.02;;
41456;SDS011;27197;51.752;5.220;2023-12-22T19:57:01;7.53;;;1.40;;
41456;SDS011;27197;51.752;5.220;2023-12-22T19:59:28;5.90;;;1.72;;
41456;SDS011;27197;51.752;5.220;2023-12-22T20:01:56;8.35;;;2.33;;
41456;SDS011;27197;51.752;5.220;2023-12-22T20:04:23;5.47;;;1.98;;
41456;SDS011;27197;51.752;5.220;2023-12-22T20:06:51;6.90;;;2.75;;
41456;SDS011;27197;51.752;5.220;2023-12-22T20:09:19;9.85;;;1.65;;
41456;SDS011;27197;51.752;5.220;2023-12-22T20:11:46;7.87;;;1.32;;
41456;SDS011;27197;51.752;5.220;2023-12-22T20:14:14;7.22;;;1.37;;
41456;SDS011;27197;51.752;5.220;2023-12-22T20:16:41;5.30;;;1.50;;
41456;SDS011;27197;51.752;5.220;2023-12-22T20:19:09;5.40;;;1.40;;
41456;SDS011;27197;51.752;5.220;2023-12-22T20:21:36;5.53;;;1.52;;
41456;SDS011;27197;51.752;5.220;2023-12-22T20:24:05;7.05;;;1.30;;
41456;SDS011;27197;51.752;5.220;2023-12-22T20:26:34;7.55;;;1.57;;
41456;SDS011;27197;51.752;5.220;2023-12-22T20:29:01;4.25;;;1.95;;
41456;SDS011;27197;51.752;5.220;2023-12-22T20:31:29;6.72;;;1.57;;
41456;SDS011;27197;51.752;5.220;2023-12-22T20:33:57;4.62;;;1.10;;
41456;SDS011;27197;51.752;5.220;2023-12-22T20:36:25;5.30;;;1.55;;
41456;SDS011;27197;51.752;5.220;2023-12-22T20:38:52;5.10;;;1.42;;
41456;SDS011;27197;51.752;5.220;2023-12-22T20:41:20;6.50;;;1.20;;
41456;SDS011;27197;51.752;5.220;2023-12-22T20:43:47;7.12;;;1.62;;
41456;SDS011;27197;51.752;5.220;2023-12-22T20:46:15;4.42;;;1.60;;
41456;SDS011;27197;51.752;5.220;2023-12-22T20:48:42;4.67;;;1.40;;
41456;SDS011;27197;51.752;5.220;2023-12-22T20:51:10;6.62;;;1.27;;
41456;SDS011;27197;51.752;5.220;2023-12-22T20:53:37;7.50;;;1.60;;
41456;SDS011;27197;51.752;5.220;2023-12-22T20:56:15;4.60;;;1.22;;
41456;SDS011;27197;51.752;5.220;2023-12-22T20:58:47;5.00;;;1.55;;
41456;SDS011;27197;51.752;5.220;2023-12-22T21:01:15;6.58;;;1.42;;
41456;SDS011;27197;51.752;5.220;2023-12-22T21:03:43;5.05;;;1.32;;